• Join FlightAware (Why Join?)
  • Login
  • US Flag 
09:15AM EDT


 

Airport Tracker/Info


-or-


 

Live Flight TrackerFlight Track Log ✈ UAL256 ✈ 26-Apr-2013 ✈ KLAX - KDEN

Flight Track Log - Related Links

Times and Time Zones

All times are in EDT time to prevent confusion due to time zone crossing. See the UAL256 flight status page for this flight to view local times or setup timezone preferences in your user account.

Time Position Orientation Groundspeed Altitude Reporting Facility
EDT Latitude Longitude Course Direction KTS MPH feet Rate Location/Type
05:19PM 33.9314 -118.4453 55° Northeast 199 229 1,800  Level Los Angeles Center
05:20PM 33.9064 -118.5156 247° West 236 272 4,700 3,000 Climbing Los Angeles Center
05:21PM 34.1080 -118.1144 54° Northeast  Level FlightAware Approximate
05:21PM 33.8481 -118.4906 160° South 259 298 8,000  Level Los Angeles Center
05:22PM 34.1685 -117.9963 59° Northeast  Level FlightAware Approximate
05:22PM 33.8983 -118.4397 40° Northeast 279 321 10,400  Level Los Angeles Center
05:23PM 34.2280 -117.8773 59° Northeast  Level FlightAware Approximate
05:23PM 33.9686 -118.3767 37° Northeast 326 375 12,800  Level Los Angeles Center
05:24PM 34.2926 -117.7672 55° Northeast  Level FlightAware Approximate
05:24PM 34.0208 -118.2819 56° Northeast 335 386 15,900  Level Los Angeles Center
05:25PM 34.0781 -118.1806 56° Northeast 354 407 18,100 2,160 Climbing Los Angeles Center
05:26PM 34.1389 -118.0744 55° Northeast 375 432 20,400 2,100 Climbing Los Angeles Center
05:27PM 34.2156 -117.9389 56° Northeast 401 461 22,500 1,620 Climbing Los Angeles Center
05:28PM 34.2833 -117.8189 56° Northeast 422 486 24,100 1,560 Climbing Los Angeles Center
05:30PM 34.3700 -117.6697 55° Northeast 445 512 26,100 1,740 Climbing Los Angeles Center
05:31PM 34.4606 -117.5472 48° Northeast 461 531 27,800 1,320 Climbing Los Angeles Center
05:32PM 34.5453 -117.4267 50° Northeast 468 539 28,900 840 Climbing Los Angeles Center
05:33PM 34.6306 -117.3025 50° Northeast 479 551 29,600 960 Climbing Los Angeles Center
05:34PM 34.7344 -117.1578 49° Northeast 478 550 31,000 660 Climbing Los Angeles Center
05:35PM 34.8181 -117.0319 51° Northeast 482 555 31,000 540 Level Los Angeles Center
05:36PM 34.9000 -116.9050 52° Northeast 481 554 32,200 1,380 Climbing Los Angeles Center
05:37PM 34.9833 -116.7819 50° Northeast 476 548 33,900 1,800 Climbing Los Angeles Center
05:38PM 35.0686 -116.6619 49° Northeast 474 545 36,000 1,380 Climbing Los Angeles Center
05:39PM 35.1658 -116.5200 50° Northeast 465 535 36,800 480 Climbing Los Angeles Center
05:40PM 35.2478 -116.4003 50° Northeast 461 531 37,000 60 Climbing Los Angeles Center
05:41PM 35.3328 -116.2750 50° Northeast 476 548 37,000  Level Los Angeles Center
05:42PM 35.4158 -116.1472 51° Northeast 480 552 37,000  Level Los Angeles Center
05:43PM 35.5028 -116.0242 49° Northeast 479 551 37,000  Level Los Angeles Center
05:44PM 35.5875 -115.8800 54° Northeast 473 544 37,000  Level Los Angeles Center
05:45PM 35.6411 -115.7300 66° East 479 551 37,000  Level Los Angeles Center
05:46PM 35.7067 -115.5506 66° East 483 556 37,000  Level Los Angeles Center
05:47PM 35.7592 -115.4000 67° East 484 557 37,000  Level Los Angeles Center
05:48PM 35.8131 -115.2497 66° East 483 556 37,000  Level Los Angeles Center
05:49PM 35.8633 -115.0997 67° East 478 550 37,000  Level Los Angeles Center
05:50PM 35.9175 -114.9458 66° East 489 563 37,000  Level Los Angeles Center
05:51PM 35.9806 -114.7597 67° East 493 567 37,000  Level Los Angeles Center
05:52PM 36.0342 -114.6047 67° East 493 567 37,000  Level Los Angeles Center
05:54PM 36.0975 -114.4186 67° East 493 567 37,000  Level Los Angeles Center
05:55PM 36.1514 -114.2625 67° East 494 568 37,000  Level Los Angeles Center
05:56PM 36.2156 -114.0761 67° East 492 566 37,000  Level Los Angeles Center
05:57PM 36.2789 -113.8889 67° East 493 567 37,000  Level Los Angeles Center
05:58PM 36.3308 -113.7339 67° East 490 564 37,000  Level Los Angeles Center
05:59PM 36.3814 -113.5792 68° East 486 559 37,000  Level Los Angeles Center
06:00PM 36.4331 -113.4244 67° East 485 558 37,000  Level Los Angeles Center
06:01PM 36.4847 -113.2694 67° East 485 558 37,000  Level Los Angeles Center
06:02PM 36.5386 -113.1044 68° East 483 556 37,000  Level Los Angeles Center
06:03PM 36.5886 -112.9503 68° East 483 556 37,000  Level Los Angeles Center
06:04PM 36.6392 -112.7950 68° East 485 558 37,000  Level Los Angeles Center
06:05PM 36.7003 -112.6078 68° East 489 563 37,000  Level Los Angeles Center
06:06PM 36.7397 -112.4836 68° East 487 560 37,000  Level Los Angeles Center
06:07PM 36.7997 -112.2964 68° East 487 560 37,000  Level Los Angeles Center
06:08PM 36.8486 -112.1406 69° East 485 558 37,000  Level Los Angeles Center
06:09PM 36.9039 -111.9867 66° East 487 560 37,000  Level Los Angeles Center
06:10PM 36.9636 -111.8381 63° Northeast 483 556 37,000  Level Denver Center
06:11PM 37.0403 -111.6608 62° Northeast 485 558 37,000  Level Denver Center
06:12PM 37.1031 -111.5119 62° Northeast 486 559 37,000  Level Denver Center
06:13PM 37.1639 -111.3639 63° Northeast 482 555 37,000  Level Denver Center
06:14PM 37.2258 -111.2153 62° Northeast 483 556 37,000  Level Denver Center
06:15PM 37.2883 -111.0669 62° Northeast 483 556 37,000  Level Denver Center
06:16PM 37.3611 -110.8897 63° Northeast 479 551 37,000  Level Denver Center
06:17PM 37.4222 -110.7431 62° Northeast 476 548 37,000  Level Denver Center
06:19PM 37.4817 -110.5964 63° Northeast 474 545 37,000  Level Denver Center
06:20PM 37.5431 -110.4442 63° Northeast 470 541 37,000  Level Denver Center
06:21PM 37.5997 -110.3064 63° Northeast 464 534 37,000  Level Denver Center
06:22PM 37.6639 -110.1450 63° Northeast 459 528 37,000  Level Denver Center
06:23PM 37.7200 -110.0069 63° Northeast 461 531 37,000  Level Denver Center
06:24PM 37.7836 -109.8453 63° Northeast 461 531 37,000  Level Denver Center
06:25PM 37.8383 -109.7069 63° Northeast 460 529 37,000  Level Denver Center
06:26PM 37.9114 -109.5225 63° Northeast 460 529 37,000  Level Denver Center
06:27PM 37.9650 -109.3844 64° Northeast 459 528 37,000  Level Denver Center
06:28PM 38.0289 -109.2200 64° Northeast 464 534 37,000  Level Denver Center
06:29PM 38.0903 -109.0589 64° Northeast 471 542 37,000  Level Denver Center
06:30PM 38.1456 -108.9169 64° Northeast 471 542 37,000  Level Denver Center
06:31PM 38.2092 -108.7519 64° Northeast 468 539 37,000  Level Denver Center
06:32PM 38.2647 -108.6061 64° Northeast 476 548 37,000  Level Denver Center
06:33PM 38.3106 -108.4867 64° Northeast 474 545 37,000  Level Denver Center
06:34PM 38.3844 -108.2925 64° Northeast 477 549 37,000  Level Denver Center
06:35PM 38.4481 -108.1233 64° Northeast 475 547 37,000  Level Denver Center
06:36PM 38.5025 -107.9761 65° Northeast 481 554 37,000  Level Denver Center
06:37PM 38.5606 -107.8022 67° East 480 552 37,000  Level Denver Center
06:38PM 38.6044 -107.6503 70° East 479 551 37,000  Level Denver Center
06:39PM 38.6553 -107.4711 70° East 481 554 37,000  Level Denver Center
06:40PM 38.6992 -107.3194 70° East 477 549 37,000  Level Denver Center
06:42PM 38.7461 -107.1561 70° East 482 555 37,000  Level Denver Center
06:43PM 38.8017 -106.9639 70° East 482 555 37,000  Level Denver Center
06:44PM 38.8478 -106.8025 70° East 485 558 37,000  Level Denver Center
06:45PM 38.8967 -106.6250 70° East 483 556 37,000 -540 Level Denver Center
06:46PM 38.9472 -106.4464 70° East 478 550 35,900 -1,920 Descending Denver Center
06:47PM 38.9886 -106.2969 70° East 468 539 33,100 -2,820 Descending Denver Center
06:48PM 39.0328 -106.1347 71° East 448 516 30,100 -2,640 Descending Denver Center
06:49PM 39.0739 -105.9814 71° East 450 518 27,700 -2,400 Descending Denver Center
06:50PM 39.1189 -105.8200 70° East 438 504 25,200 -2,280 Descending Denver Center
06:51PM 39.1544 -105.6881 71° East 426 490 23,100 -2,160 Descending Denver Center
06:52PM 39.1917 -105.5478 71° East 414 476 20,800 -2,400 Descending Denver Center
06:53PM 39.2361 -105.3933 70° East 415 478 18,300 -1,560 Descending Denver Center
06:54PM 39.2694 -105.2447 74° East 399 459 17,700 -480 Descending Denver Center
06:55PM 39.3214 -105.1447 56° Northeast 336 387 17,400 -780 Descending Denver Center
06:56PM 39.3558 -105.0583 63° Northeast 283 326 16,100 -1,260 Descending Denver Center
06:57PM 39.3686 -104.9639 80° East 269 310 14,800 -1,260 Descending Denver Center
06:58PM 39.4103 -104.8614 62° Northeast 258 297 13,300 -1,260 Descending Denver Center
06:59PM 39.4617 -104.7928 46° Northeast 255 293 12,000 -1,080 Descending Denver Center
07:00PM 39.5197 -104.7467 31° Northeast 246 283 11,100 -1,020 Descending Denver Center
07:02PM 39.5769 -104.7031 30° Northeast 241 277 10,000 -960 Descending Denver Center
07:03PM 39.6378 -104.6706 22° Northeast 218 251 9,200 -1,020 Descending Denver Center
07:04PM 39.6967 -104.6619 North 214 246 8,000 -1,200 Descending Denver Center